Time;durP1;ratioP1;P1;durP2;ratioP2;P2;SDS_P1;SDS_P2;PMS_P1;PMS_P2;Temp;Humidity;BMP_temperature;BMP_pressure;BME280_temperature;BME280_humidity;BME280_pressure;Samples;Min_cycle;Max_cycle;Signal;HPM_P1;HPM_P2
2023/03/30 00:00:00;;;;;;;14.02;6.60;;;205.20;2099.20;;;;;;4980979;28;20088;-70
2023/03/30 00:02:30;;;;;;;18.23;6.60;;;205.20;2124.80;;;;;;4983305;28;20062;-73
2023/03/30 00:05:01;;;;;;;12.93;6.82;;;205.20;2073.60;;;;;;4986792;28;20041;-70
2023/03/30 00:07:29;;;;;;;11.95;6.20;;;205.10;2099.20;;;;;;4985718;28;20033;-71
2023/03/30 00:09:55;;;;;;;13.00;6.22;;;205.20;2124.80;;;;;;4965819;28;20389;-71
2023/03/30 00:12:21;;;;;;;12.07;6.15;;;205.30;2150.40;;;;;;4982449;28;20408;-71
2023/03/30 00:14:48;;;;;;;12.48;5.60;;;205.30;2201.60;;;;;;4964637;28;20030;-71
2023/03/30 00:17:13;;;;;;;12.60;6.93;;;205.20;2252.80;;;;;;4978631;28;20042;-69
2023/03/30 00:19:39;;;;;;;;;;;205.00;2252.80;;;;;;4976923;28;20038;-71
2023/03/30 00:22:06;;;;;;;12.02;5.82;;;205.00;2252.80;;;;;;4980252;28;19906;-71
2023/03/30 00:24:33;;;;;;;11.98;5.65;;;204.90;2252.80;;;;;;4991247;28;20035;-79
2023/03/30 00:26:58;;;;;;;10.65;6.22;;;205.00;2252.80;;;;;;4995818;28;20078;-71
2023/03/30 00:29:24;;;;;;;12.30;6.25;;;205.00;2252.80;;;;;;4988732;28;20058;-70
2023/03/30 00:31:49;;;;;;;;;;;204.90;2252.80;;;;;;4976737;28;20023;-78
2023/03/30 00:34:15;;;;;;;13.68;6.45;;;204.90;2252.80;;;;;;4976749;28;19906;-71
2023/03/30 00:36:41;;;;;;;;;;;204.80;2252.80;;;;;;4976652;28;20031;-72
2023/03/30 00:39:07;;;;;;;17.30;7.47;;;204.80;2252.80;;;;;;4976296;28;19968;-71
2023/03/30 00:41:35;;;;;;;;;;;204.90;2252.80;;;;;;4976812;28;20041;-72
2023/03/30 00:44:08;;;;;;;11.00;6.07;;;204.80;2252.80;;;;;;4959006;28;20383;-75
2023/03/30 00:46:34;;;;;;;14.00;5.80;;;204.80;2252.80;;;;;;4975880;28;20033;-77
2023/03/30 00:49:07;;;;;;;12.23;6.47;;;204.80;2252.80;;;;;;4976086;28;20023;-73
2023/03/30 00:51:37;;;;;;;11.68;6.18;;;204.80;2252.80;;;;;;4958783;28;20084;-71
2023/03/30 00:54:13;;;;;;;11.77;6.03;;;204.80;2252.80;;;;;;4958677;28;20033;-71
2023/03/30 00:56:39;;;;;;;11.52;5.85;;;204.80;2252.80;;;;;;4975640;28;20096;-71
2023/03/30 00:59:06;;;;;;;;;;;204.90;2252.80;;;;;;4976027;28;20031;-72
2023/03/30 01:01:37;;;;;;;12.63;6.03;;;204.90;2252.80;;;;;;4975640;28;20005;-71
2023/03/30 01:04:04;;;;;;;9.57;5.43;;;204.90;2252.80;;;;;;4975676;28;20023;-72
2023/03/30 01:06:33;;;;;;;12.25;5.72;;;204.90;2252.80;;;;;;4975581;28;20023;-71
2023/03/30 01:08:59;;;;;;;13.45;6.03;;;204.80;2252.80;;;;;;4975631;28;20078;-72
2023/03/30 01:11:25;;;;;;;11.35;6.55;;;180.10;2252.80;;;;;;4975455;28;20029;-72
2023/03/30 01:14:00;;;;;;;12.82;6.15;;;180.10;2252.80;;;;;;4975338;28;20023;-80
2023/03/30 01:16:41;;;;;;;12.25;6.63;;;180.10;2252.80;;;;;;4975428;28;20027;-79
2023/03/30 01:19:29;;;;;;;13.02;6.72;;;180.10;2252.80;;;;;;4975558;28;20035;-71
2023/03/30 01:22:13;;;;;;;14.48;8.60;;;180.00;2252.80;;;;;;4974273;28;20046;-73
2023/03/30 01:25:01;;;;;;;14.48;7.45;;;180.00;2252.80;;;;;;4972998;28;20505;-79
2023/03/30 01:27:44;;;;;;;18.60;7.25;;;180.10;2252.80;;;;;;4975252;28;20026;-77
2023/03/30 01:30:39;;;;;;;13.45;7.13;;;180.10;2252.80;;;;;;4975190;28;20137;-71
2023/03/30 01:33:24;;;;;;;12.32;8.07;;;204.80;2252.80;;;;;;4975238;28;20024;-70
2023/03/30 01:36:08;;;;;;;14.05;7.75;;;204.80;2252.80;;;;;;4973641;28;20043;-71
2023/03/30 01:38:52;;;;;;;14.75;7.25;;;180.10;2252.80;;;;;;4975098;28;20401;-75
2023/03/30 01:41:41;;;;;;;14.02;7.63;;;204.80;2252.80;;;;;;4975051;28;20030;-71
2023/03/30 01:44:25;;;;;;;13.98;7.55;;;180.10;2252.80;;;;;;4976802;28;20026;-71
2023/03/30 01:46:56;;;;;;;14.23;6.65;;;180.10;2252.80;;;;;;4994314;28;20037;-71
2023/03/30 01:49:40;;;;;;;14.70;7.20;;;180.10;2252.80;;;;;;4977072;28;20014;-79
2023/03/30 01:52:17;;;;;;;13.93;6.55;;;180.00;2252.80;;;;;;4994321;28;20026;-79
2023/03/30 01:54:56;;;;;;;11.88;6.30;;;180.00;2252.80;;;;;;4994266;28;20073;-71
2023/03/30 01:57:40;;;;;;;18.13;7.05;;;180.00;2252.80;;;;;;4994081;28;20500;-70
2023/03/30 02:00:13;;;;;;;13.25;6.38;;;180.00;2252.80;;;;;;4976663;28;20031;-70
2023/03/30 02:02:47;;;;;;;13.38;6.65;;;180.00;2252.80;;;;;;4993969;28;20026;-80
2023/03/30 02:05:16;;;;;;;12.77;6.95;;;180.00;2252.80;;;;;;4994023;28;20062;-71
2023/03/30 02:07:46;;;;;;;17.60;6.63;;;180.10;2252.80;;;;;;4994132;28;20380;-71
2023/03/30 02:10:14;;;;;;;12.80;6.55;;;180.00;2252.80;;;;;;4990016;28;20035;-71
2023/03/30 02:12:41;;;;;;;12.20;6.72;;;180.00;2252.80;;;;;;4991820;28;20027;-79
2023/03/30 02:15:09;;;;;;;13.70;7.18;;;180.00;2252.80;;;;;;4993621;28;20049;-71
2023/03/30 02:17:36;;;;;;;13.05;6.43;;;180.00;2252.80;;;;;;4993829;28;20113;-73
2023/03/30 02:20:05;;;;;;;13.73;5.95;;;180.10;2252.80;;;;;;4993879;28;20065;-76
2023/03/30 02:22:32;;;;;;;14.10;6.57;;;180.00;2252.80;;;;;;4993875;28;20026;-70
2023/03/30 02:24:59;;;;;;;;;;;180.10;2252.80;;;;;;4994242;28;20530;-73
2023/03/30 02:27:26;;;;;;;16.10;7.05;;;180.10;2252.80;;;;;;4976499;28;19940;-72
2023/03/30 02:29:53;;;;;;;13.23;6.43;;;180.10;2252.80;;;;;;4993792;28;20026;-72
2023/03/30 02:32:35;;;;;;;12.50;6.47;;;180.10;2252.80;;;;;;4993608;28;20014;-71
2023/03/30 02:35:21;;;;;;;12.07;6.30;;;180.10;2252.80;;;;;;4993712;28;20022;-79
2023/03/30 02:38:04;;;;;;;12.23;7.00;;;180.00;2252.80;;;;;;4979912;28;20026;-72
2023/03/30 02:40:31;;;;;;;12.63;6.30;;;180.00;2252.80;;;;;;4997301;28;20504;-72
2023/03/30 02:43:06;;;;;;;12.27;6.68;;;180.00;2252.80;;;;;;4997548;28;20019;-71
2023/03/30 02:45:59;;;;;;;13.73;5.78;;;180.00;2252.80;;;;;;4997492;28;20030;-71
2023/03/30 02:48:35;;;;;;;15.02;6.75;;;180.00;2252.80;;;;;;4997321;28;20037;-76
2023/03/30 02:51:17;;;;;;;12.02;6.32;;;180.00;2252.80;;;;;;4980115;28;20018;-74
2023/03/30 02:53:48;;;;;;;10.75;5.60;;;180.00;2252.80;;;;;;4997477;28;20030;-71
2023/03/30 02:56:22;;;;;;;15.20;6.07;;;180.00;2252.80;;;;;;4997111;28;20420;-71
2023/03/30 02:58:50;;;;;;;12.60;6.15;;;180.00;2252.80;;;;;;4996985;28;20046;-80
2023/03/30 03:01:56;;;;;;;13.38;6.68;;;180.00;2252.80;;;;;;4997515;28;20049;-76
2023/03/30 03:04:24;;;;;;;13.60;7.68;;;180.00;2252.80;;;;;;4918404;29;20035;-76
2023/03/30 03:06:51;;;;;;;13.15;6.55;;;180.10;2252.80;;;;;;4917808;29;20036;-73
2023/03/30 03:09:23;;;;;;;12.98;6.03;;;180.10;2227.20;;;;;;4918162;29;20079;-71
2023/03/30 03:11:50;;;;;;;11.40;5.43;;;180.00;2227.20;;;;;;4901834;29;20395;-72
2023/03/30 03:14:15;;;;;;;22.65;6.32;;;180.10;2252.80;;;;;;4917952;29;20032;-72
2023/03/30 03:16:41;;;;;;;10.13;5.93;;;180.10;2252.80;;;;;;4917993;29;20039;-71
2023/03/30 03:19:07;;;;;;;;;;;180.10;2252.80;;;;;;4918194;29;20099;-71
2023/03/30 03:21:33;;;;;;;15.23;5.93;;;180.00;2252.80;;;;;;4917757;29;20021;-71
2023/03/30 03:23:59;;;;;;;;;;;179.90;2252.80;;;;;;4918167;29;20039;-71
2023/03/30 03:26:25;;;;;;;15.00;6.72;;;179.90;2252.80;;;;;;4901624;29;19981;-71
2023/03/30 03:28:51;;;;;;;12.98;6.07;;;179.90;2252.80;;;;;;4917879;29;20538;-71
2023/03/30 03:31:17;;;;;;;;;;;179.90;2252.80;;;;;;4917852;29;20028;-72
2023/03/30 03:33:43;;;;;;;13.40;7.35;;;179.90;2252.80;;;;;;4917595;29;19913;-71
2023/03/30 03:36:10;;;;;;;;;;;179.90;2252.80;;;;;;4918017;29;20443;-71
2023/03/30 03:38:36;;;;;;;16.50;7.65;;;179.90;2252.80;;;;;;4917939;28;20280;-71
2023/03/30 03:41:02;;;;;;;;;;;179.90;2252.80;;;;;;4993299;28;20106;-71
2023/03/30 03:43:28;;;;;;;16.05;6.97;;;179.90;2252.80;;;;;;4996378;28;19913;-72
2023/03/30 03:45:53;;;;;;;;;;;179.90;2252.80;;;;;;4979085;28;20041;-71
2023/03/30 03:48:21;;;;;;;13.82;7.15;;;179.90;2252.80;;;;;;4996018;28;19912;-71
2023/03/30 03:50:55;;;;;;;13.10;6.90;;;179.80;2252.80;;;;;;4996328;28;20033;-71
2023/03/30 03:53:23;;;;;;;15.63;7.88;;;179.90;2252.80;;;;;;4978971;28;20023;-71
2023/03/30 03:55:48;;;;;;;11.88;7.00;;;179.90;2252.80;;;;;;4971886;28;20050;-79
2023/03/30 03:58:15;;;;;;;;;;;179.90;2252.80;;;;;;4977436;28;20121;-71
2023/03/30 04:00:41;;;;;;;15.65;7.38;;;179.80;2252.80;;;;;;4976687;28;20423;-72
2023/03/30 04:03:07;;;;;;;16.92;8.50;;;179.80;2252.80;;;;;;4976748;28;20031;-71
2023/03/30 04:05:34;;;;;;;19.13;8.07;;;179.80;2252.80;;;;;;4976628;28;20042;-75
2023/03/30 04:08:00;;;;;;;22.45;8.32;;;179.80;2252.80;;;;;;4959489;28;20109;-71
2023/03/30 04:10:25;;;;;;;;;;;179.80;2252.80;;;;;;4976888;28;20063;-71
2023/03/30 04:12:55;;;;;;;17.20;8.63;;;179.90;2252.80;;;;;;4976594;28;19996;-71
2023/03/30 04:15:21;;;;;;;17.80;9.20;;;179.80;2252.80;;;;;;4976469;28;20017;-71
2023/03/30 04:17:48;;;;;;;16.50;8.82;;;179.80;2252.80;;;;;;4964748;28;20029;-71
2023/03/30 04:20:15;;;;;;;18.52;9.05;;;179.80;2252.80;;;;;;4975378;28;20465;-72
2023/03/30 04:22:42;;;;;;;21.52;8.82;;;179.80;2252.80;;;;;;4976287;28;20078;-73
2023/03/30 04:25:13;;;;;;;22.42;8.93;;;179.80;2252.80;;;;;;4975948;28;20081;-71
2023/03/30 04:27:41;;;;;;;20.90;9.98;;;179.80;2252.80;;;;;;4975998;28;20085;-71
2023/03/30 04:30:09;;;;;;;22.27;9.73;;;179.80;2252.80;;;;;;4976343;28;20469;-71
2023/03/30 04:32:37;;;;;;;17.27;9.23;;;179.80;2252.80;;;;;;4975836;28;20031;-71
2023/03/30 04:35:07;;;;;;;21.42;8.98;;;179.80;2252.80;;;;;;4975934;28;20031;-71
2023/03/30 04:37:34;;;;;;;20.48;10.85;;;179.70;2252.80;;;;;;4975797;28;20102;-71
2023/03/30 04:40:00;;;;;;;21.45;9.30;;;179.80;2252.80;;;;;;4958756;28;20101;-71
2023/03/30 04:42:32;;;;;;;18.48;8.93;;;179.80;2252.80;;;;;;4958336;28;20430;-71
2023/03/30 04:44:59;;;;;;;15.50;8.65;;;179.80;2252.80;;;;;;4976011;28;20027;-71
2023/03/30 04:47:26;;;;;;;25.27;9.38;;;179.80;2252.80;;;;;;4975703;28;20019;-76
2023/03/30 04:49:52;;;;;;;15.90;8.20;;;179.80;2252.80;;;;;;4976054;28;20106;-79
2023/03/30 04:52:18;;;;;;;;;;;179.80;2252.80;;;;;;4958928;28;20027;-80
2023/03/30 04:54:44;;;;;;;33.97;8.32;;;179.80;2252.80;;;;;;4975822;28;19979;-80
2023/03/30 04:57:11;;;;;;;15.00;7.70;;;179.70;2252.80;;;;;;4993141;28;20054;-70
2023/03/30 04:59:36;;;;;;;18.40;8.23;;;179.70;2252.80;;;;;;4994135;28;20038;-80
2023/03/30 05:02:03;;;;;;;;;;;179.80;2252.80;;;;;;4995332;28;20129;-71
2023/03/30 05:04:29;;;;;;;18.00;8.23;;;179.80;2252.80;;;;;;4994964;28;19905;-70
2023/03/30 05:06:56;;;;;;;;;;;179.80;2252.80;;;;;;4986613;28;20700;-69
2023/03/30 05:09:22;;;;;;;15.52;9.10;;;179.80;2252.80;;;;;;4987457;28;19917;-69
2023/03/30 05:11:48;;;;;;;22.08;8.95;;;179.80;2252.80;;;;;;4986997;28;20377;-73
2023/03/30 05:14:14;;;;;;;;;;;179.90;2252.80;;;;;;4986089;28;20064;-72
2023/03/30 05:16:40;;;;;;;13.35;6.75;;;179.90;2252.80;;;;;;4964596;28;20290;-70
2023/03/30 05:19:05;;;;;;;;;;;180.00;2252.80;;;;;;4985087;28;20042;-72
2023/03/30 05:21:31;;;;;;;11.55;6.65;;;180.00;2252.80;;;;;;4966578;28;20395;-70
2023/03/30 05:23:57;;;;;;;14.95;8.45;;;180.00;2252.80;;;;;;4988988;28;20057;-70
2023/03/30 05:26:23;;;;;;;;;;;180.10;2252.80;;;;;;4987699;28;20030;-70
2023/03/30 05:28:49;;;;;;;11.80;6.45;;;180.10;2252.80;;;;;;4980178;28;19917;-70
2023/03/30 05:31:16;;;;;;;21.42;7.50;;;180.10;2252.80;;;;;;4979802;28;20072;-71
2023/03/30 05:33:41;;;;;;;19.00;7.63;;;180.10;2252.80;;;;;;4985586;28;20027;-70
2023/03/30 05:36:07;;;;;;;;;;;204.80;2252.80;;;;;;4980491;28;20542;-70
2023/03/30 05:38:33;;;;;;;14.73;6.03;;;204.80;2252.80;;;;;;4965826;28;19925;-70
2023/03/30 05:40:59;;;;;;;12.30;6.78;;;180.10;2252.80;;;;;;4987603;28;20026;-71
2023/03/30 05:43:25;;;;;;;;;;;204.80;2252.80;;;;;;4983274;28;20096;-70
2023/03/30 05:45:51;;;;;;;13.23;6.97;;;204.80;2252.80;;;;;;4982706;28;19909;-70
2023/03/30 05:48:16;;;;;;;;;;;204.90;2252.80;;;;;;4975930;28;20033;-71
2023/03/30 05:50:42;;;;;;;17.88;8.43;;;204.90;2252.80;;;;;;4976988;28;19910;-71
2023/03/30 05:53:07;;;;;;;;;;;205.10;2252.80;;;;;;4977893;28;20089;-69
2023/03/30 05:55:33;;;;;;;16.50;7.28;;;205.00;2252.80;;;;;;4981671;28;20395;-69
2023/03/30 05:57:59;;;;;;;;;;;204.90;2252.80;;;;;;4983949;28;20084;-71
2023/03/30 06:00:25;;;;;;;13.23;7.20;;;204.90;2252.80;;;;;;4992153;28;20280;-70
2023/03/30 06:02:52;;;;;;;15.93;6.47;;;204.80;2252.80;;;;;;4982818;28;20027;-70
2023/03/30 06:05:18;;;;;;;18.25;7.70;;;204.80;2252.80;;;;;;4981143;28;20025;-71
2023/03/30 06:07:44;;;;;;;12.73;6.05;;;204.90;2252.80;;;;;;4986566;28;20032;-73
2023/03/30 06:10:11;;;;;;;12.60;6.55;;;205.00;2252.80;;;;;;4982796;28;20058;-71
2023/03/30 06:12:38;;;;;;;13.85;6.82;;;205.10;2252.80;;;;;;4969530;28;20026;-74
2023/03/30 06:15:07;;;;;;;13.88;7.13;;;205.20;2252.80;;;;;;4977576;28;20058;-71
2023/03/30 06:17:34;;;;;;;18.98;7.53;;;205.30;2252.80;;;;;;4982085;28;20026;-74
2023/03/30 06:20:00;;;;;;;12.32;6.00;;;205.50;2252.80;;;;;;4968546;28;20426;-71
2023/03/30 06:22:25;;;;;;;;;;;205.60;2252.80;;;;;;4981227;28;20074;-71
2023/03/30 06:24:51;;;;;;;11.82;5.78;;;205.60;2252.80;;;;;;4985399;28;19910;-72
2023/03/30 06:27:17;;;;;;;11.52;5.68;;;230.40;2252.80;;;;;;4984877;28;20034;-71
2023/03/30 06:29:44;;;;;;;;;;;230.50;2252.80;;;;;;4975061;28;20110;-71
2023/03/30 06:32:09;;;;;;;9.65;4.72;;;230.50;2252.80;;;;;;4981574;28;20327;-72
2023/03/30 06:34:35;;;;;;;;;;;230.60;2252.80;;;;;;4985004;28;20022;-72
2023/03/30 06:37:01;;;;;;;12.65;5.13;;;230.70;2252.80;;;;;;4981283;28;19914;-72
2023/03/30 06:39:27;;;;;;;;;;;230.90;2252.80;;;;;;4977945;28;20409;-72
2023/03/30 06:41:52;;;;;;;12.32;4.63;;;230.90;2252.80;;;;;;4975657;28;19910;-73
2023/03/30 06:44:18;;;;;;;11.75;6.25;;;231.00;2252.80;;;;;;4979932;28;20029;-71
2023/03/30 06:46:45;;;;;;;;;;;231.20;2252.80;;;;;;4989491;28;20488;-73
2023/03/30 06:49:11;;;;;;;7.13;4.30;;;231.20;2252.80;;;;;;4972850;28;19917;-72
2023/03/30 06:51:36;;;;;;;8.75;5.15;;;256.00;2252.80;;;;;;4984179;28;20061;-71
2023/03/30 06:54:02;;;;;;;9.57;4.60;;;256.10;2252.80;;;;;;4979012;28;20473;-75
2023/03/30 06:56:28;;;;;;;9.98;5.07;;;256.30;2252.80;;;;;;4977952;28;20061;-72
2023/03/30 06:58:56;;;;;;;11.60;5.50;;;256.50;2252.80;;;;;;4981488;28;20126;-71
2023/03/30 07:01:22;;;;;;;8.25;4.63;;;256.50;2252.80;;;;;;4981434;28;20114;-73
2023/03/30 07:03:50;;;;;;;8.55;4.70;;;256.50;2252.80;;;;;;4978592;28;20034;-74
2023/03/30 07:06:16;;;;;;;10.30;4.10;;;256.40;2252.80;;;;;;4965361;28;20077;-73
2023/03/30 07:08:43;;;;;;;9.55;4.55;;;256.20;2252.80;;;;;;4982599;28;20061;-74
2023/03/30 07:11:09;;;;;;;8.05;4.28;;;256.20;2252.80;;;;;;4965629;28;20034;-72
2023/03/30 07:13:34;;;;;;;10.10;4.78;;;256.40;2252.80;;;;;;4966298;28;20566;-73
2023/03/30 07:16:00;;;;;;;9.38;5.10;;;256.70;2252.80;;;;;;4966879;28;20532;-71
2023/03/30 07:18:26;;;;;;;11.13;5.75;;;256.80;2252.80;;;;;;4989972;28;20045;-72
2023/03/30 07:20:52;;;;;;;;;;;281.60;2278.40;;;;;;4979708;28;20113;-73
2023/03/30 07:23:18;;;;;;;10.20;4.95;;;281.70;2278.40;;;;;;4970555;28;19917;-71
2023/03/30 07:25:45;;;;;;;8.82;4.53;;;281.70;2227.20;;;;;;4983576;28;20485;-73
2023/03/30 07:28:12;;;;;;;9.68;4.55;;;281.60;2252.80;;;;;;4985864;28;20030;-71
2023/03/30 07:30:38;;;;;;;11.63;5.10;;;256.90;2252.80;;;;;;4991287;28;20034;-70
2023/03/30 07:33:05;;;;;;;10.88;4.55;;;256.90;2252.80;;;;;;4989643;28;20027;-71
2023/03/30 07:35:31;;;;;;;10.93;4.88;;;281.80;2278.40;;;;;;4990182;28;20026;-74
2023/03/30 07:37:56;;;;;;;10.50;5.00;;;282.10;2252.80;;;;;;4986902;28;20034;-74
2023/03/30 07:40:22;;;;;;;9.70;5.30;;;282.50;2227.20;;;;;;4981678;28;20041;-75
2023/03/30 07:42:49;;;;;;;10.05;4.93;;;307.20;2201.60;;;;;;4989476;28;20477;-72
2023/03/30 07:45:15;;;;;;;10.18;4.95;;;282.40;2176.00;;;;;;4987851;28;20062;-74
2023/03/30 07:47:41;;;;;;;8.30;3.85;;;282.50;2201.60;;;;;;4985666;28;20518;-72
2023/03/30 07:50:07;;;;;;;;;;;307.20;2099.20;;;;;;4961841;28;20027;-71
2023/03/30 07:52:33;;;;;;;10.88;4.43;;;307.20;2124.80;;;;;;4984561;28;19918;-70
2023/03/30 07:54:59;;;;;;;9.32;4.25;;;307.50;2099.20;;;;;;4982230;28;20488;-68
2023/03/30 07:57:26;;;;;;;7.05;4.07;;;307.40;2150.40;;;;;;4977983;28;20048;-69
2023/03/30 07:59:51;;;;;;;9.63;4.65;;;307.40;2124.80;;;;;;4993068;28;20034;-69
2023/03/30 08:02:18;;;;;;;8.18;4.18;;;307.30;2099.20;;;;;;4979576;28;20085;-69
2023/03/30 08:04:44;;;;;;;8.85;4.85;;;307.40;2176.00;;;;;;4985636;28;20034;-70
2023/03/30 08:07:11;;;;;;;10.82;4.57;;;307.40;2150.40;;;;;;4984102;28;20476;-70
2023/03/30 08:09:37;;;;;;;8.55;4.40;;;307.50;2227.20;;;;;;4979878;28;20058;-70
2023/03/30 08:12:03;;;;;;;17.80;5.10;;;307.60;2099.20;;;;;;4980594;28;20023;-70
2023/03/30 08:14:28;;;;;;;16.17;4.80;;;307.60;2073.60;;;;;;4984057;28;20026;-68
2023/03/30 08:16:54;;;;;;;;;;;307.80;2124.80;;;;;;4969776;28;20106;-70
2023/03/30 08:19:23;;;;;;;11.65;4.35;;;307.90;2048.00;;;;;;4991279;28;19917;-70
2023/03/30 08:21:48;;;;;;;9.43;4.57;;;308.00;2022.40;;;;;;4987226;28;20161;-70
2023/03/30 08:24:15;;;;;;;13.15;5.45;;;308.10;2073.60;;;;;;4979332;28;20495;-70
2023/03/30 08:26:40;;;;;;;9.77;4.20;;;308.10;1996.80;;;;;;4978577;28;20045;-70
2023/03/30 08:29:07;;;;;;;11.63;5.13;;;308.10;2048.00;;;;;;4969180;28;20485;-71
2023/03/30 08:31:33;;;;;;;11.63;5.53;;;332.90;2073.60;;;;;;4981701;28;20097;-69
2023/03/30 08:33:59;;;;;;;8.88;4.50;;;333.00;2048.00;;;;;;4979630;28;20508;-69
2023/03/30 08:36:25;;;;;;;9.50;5.35;;;333.10;1996.80;;;;;;4976597;28;20137;-70
2023/03/30 08:38:53;;;;;;;10.98;5.05;;;333.20;1996.80;;;;;;4986453;28;20030;-73
2023/03/30 08:41:28;;;;;;;13.43;5.03;;;333.20;1971.20;;;;;;4992725;28;20408;-70
2023/03/30 08:43:58;;;;;;;7.68;4.50;;;333.30;1945.60;;;;;;4988615;28;20031;-70
2023/03/30 08:46:24;;;;;;;11.48;5.05;;;333.30;1868.80;;;;;;4983227;28;20022;-71
2023/03/30 08:48:52;;;;;;;12.70;5.15;;;333.30;1945.60;;;;;;4989037;28;20449;-69
2023/03/30 08:51:27;;;;;;;9.27;5.32;;;333.30;1920.00;;;;;;4969519;28;20074;-70
2023/03/30 08:54:04;;;;;;;9.05;4.68;;;333.40;1894.40;;;;;;4987867;28;20029;-70
2023/03/30 08:56:34;;;;;;;;;;;333.40;1920.00;;;;;;4987002;28;20042;-69
2023/03/30 08:59:15;;;;;;;12.25;5.00;;;333.50;1894.40;;;;;;4984745;28;19993;-71
2023/03/30 09:01:58;;;;;;;10.68;6.07;;;333.70;1868.80;;;;;;4982747;28;20034;-70
2023/03/30 09:04:24;;;;;;;15.77;6.82;;;358.50;1868.80;;;;;;4984679;28;20034;-72
2023/03/30 09:06:53;;;;;;;14.63;6.45;;;358.70;1868.80;;;;;;4961256;28;20035;-71
2023/03/30 09:09:27;;;;;;;8.60;4.85;;;358.70;1843.20;;;;;;4981506;28;20034;-72
2023/03/30 09:12:12;;;;;;;20.30;5.65;;;358.70;1817.60;;;;;;4983104;28;20520;-72
2023/03/30 09:14:48;;;;;;;11.07;6.18;;;358.70;1792.00;;;;;;4982986;28;20384;-73
2023/03/30 09:17:20;;;;;;;9.10;4.65;;;358.80;1792.00;;;;;;4988042;28;20014;-71
2023/03/30 09:20:11;;;;;;;10.05;5.00;;;359.00;1689.60;;;;;;4970513;28;20567;-72
2023/03/30 09:22:40;;;;;;;9.80;5.90;;;359.00;1715.20;;;;;;4980877;28;20023;-73
2023/03/30 09:25:48;;;;;;;24.63;7.18;;;359.00;1715.20;;;;;;4979197;28;20475;-73
2023/03/30 09:28:27;;;;;;;11.00;6.45;;;359.00;1689.60;;;;;;4979021;28;20043;-73
2023/03/30 09:31:15;;;;;;;16.40;7.63;;;359.10;1715.20;;;;;;4991368;28;20033;-73
2023/03/30 09:34:00;;;;;;;12.98;6.07;;;359.20;1689.60;;;;;;4984992;28;20054;-73
2023/03/30 09:36:39;;;;;;;10.35;5.28;;;384.00;1689.60;;;;;;4985288;28;20058;-73
2023/03/30 09:39:27;;;;;;;11.52;5.45;;;384.20;1612.80;;;;;;4985190;28;20046;-71
2023/03/30 09:41:58;;;;;;;7.53;4.93;;;384.40;1587.20;;;;;;4981939;28;20148;-71
2023/03/30 09:44:34;;;;;;;8.82;4.07;;;384.50;1561.60;;;;;;4976939;28;20389;-73
2023/03/30 09:47:08;;;;;;;6.97;3.83;;;384.60;1510.40;;;;;;4983441;28;20425;-70
2023/03/30 09:49:38;;;;;;;8.23;3.80;;;384.80;1433.60;;;;;;4975516;28;20473;-72
2023/03/30 09:52:06;;;;;;;10.05;4.35;;;409.70;1536.00;;;;;;4985872;28;20406;-74
2023/03/30 09:54:39;;;;;;;8.73;4.85;;;409.90;1459.20;;;;;;4980069;28;20054;-74
2023/03/30 09:57:21;;;;;;;10.70;5.07;;;410.00;1459.20;;;;;;4983737;28;20058;-71
2023/03/30 09:59:47;;;;;;;8.38;5.07;;;410.00;1433.60;;;;;;4978017;28;20035;-72
2023/03/30 10:02:15;;;;;;;14.68;4.72;;;410.10;1433.60;;;;;;4960662;28;20445;-73
2023/03/30 10:04:52;;;;;;;10.95;5.22;;;410.10;1382.40;;;;;;4983542;28;20037;-72
2023/03/30 10:07:34;;;;;;;11.80;5.65;;;410.40;1408.00;;;;;;4965897;28;20474;-73
2023/03/30 10:10:12;;;;;;;10.40;5.07;;;410.50;1382.40;;;;;;4980693;28;20022;-72
2023/03/30 10:12:38;;;;;;;11.13;5.93;;;435.20;1382.40;;;;;;4983243;28;20054;-73
2023/03/30 10:15:05;;;;;;;12.80;5.75;;;435.20;1459.20;;;;;;4987182;28;20027;-73
2023/03/30 10:17:31;;;;;;;7.10;4.72;;;435.20;1433.60;;;;;;4985658;28;20397;-71
2023/03/30 10:20:22;;;;;;;8.77;4.47;;;435.20;1382.40;;;;;;4985616;28;20034;-71
2023/03/30 10:23:18;;;;;;;10.40;3.88;;;435.30;1356.80;;;;;;4976601;28;20157;-71
2023/03/30 10:25:48;;;;;;;7.28;3.78;;;435.40;1331.20;;;;;;4978497;28;20027;-73
2023/03/30 10:28:29;;;;;;;7.90;4.13;;;435.40;1356.80;;;;;;4960310;28;20117;-70
2023/03/30 10:31:02;;;;;;;9.10;4.50;;;435.20;1382.40;;;;;;4976901;28;20377;-75
2023/03/30 10:33:29;;;;;;;7.70;4.18;;;435.50;1331.20;;;;;;4980886;28;20027;-69
2023/03/30 10:35:59;;;;;;;12.10;5.43;;;435.70;1331.20;;;;;;4980647;28;20481;-71
2023/03/30 10:38:31;;;;;;;15.05;5.65;;;435.70;1382.40;;;;;;4983299;28;20489;-73
2023/03/30 10:41:06;;;;;;;11.80;5.60;;;435.70;1408.00;;;;;;4981239;28;20034;-72
2023/03/30 10:43:33;;;;;;;11.30;5.60;;;435.70;1408.00;;;;;;4981585;28;20101;-72
2023/03/30 10:46:10;;;;;;;9.63;5.40;;;435.70;1408.00;;;;;;4976938;28;20054;-74
2023/03/30 10:48:41;;;;;;;14.32;5.60;;;435.90;1382.40;;;;;;4977998;28;20038;-74
2023/03/30 10:51:16;;;;;;;9.93;5.35;;;435.80;1356.80;;;;;;4984247;28;20050;-73
2023/03/30 10:54:20;;;;;;;10.73;5.45;;;435.50;1356.80;;;;;;4966383;28;20043;-73
2023/03/30 10:57:06;;;;;;;15.25;6.20;;;435.50;1331.20;;;;;;4964848;28;20057;-72
2023/03/30 10:59:51;;;;;;;12.13;5.72;;;435.50;1356.80;;;;;;4991910;28;20030;-72
2023/03/30 11:02:37;;;;;;;12.75;5.10;;;435.40;1356.80;;;;;;4990921;28;20026;-73
2023/03/30 11:05:13;;;;;;;14.73;5.70;;;435.40;1356.80;;;;;;4980409;28;20030;-73
2023/03/30 11:08:01;;;;;;;12.07;4.93;;;435.40;1331.20;;;;;;4978498;28;20057;-71
2023/03/30 11:10:31;;;;;;;10.38;4.22;;;435.40;1331.20;;;;;;4980838;28;20798;-72
2023/03/30 11:12:59;;;;;;;10.15;4.10;;;435.40;1331.20;;;;;;4983300;28;20026;-71
2023/03/30 11:15:30;;;;;;;15.32;4.30;;;435.50;1331.20;;;;;;4987318;28;20038;-70
2023/03/30 11:18:07;;;;;;;9.40;4.15;;;435.40;1331.20;;;;;;4980650;28;20063;-72
2023/03/30 11:20:41;;;;;;;7.63;4.25;;;435.50;1305.60;;;;;;4984209;28;20361;-71
2023/03/30 11:23:15;;;;;;;10.32;4.38;;;435.50;1305.60;;;;;;4983774;28;20037;-71
2023/03/30 11:26:07;;;;;;;8.30;4.03;;;435.50;1305.60;;;;;;4962002;28;20397;-71
2023/03/30 11:28:41;;;;;;;14.75;4.45;;;435.50;1305.60;;;;;;4979840;28;20030;-70
2023/03/30 11:31:28;;;;;;;8.63;3.40;;;435.50;1305.60;;;;;;4983963;28;20042;-70
2023/03/30 11:34:02;;;;;;;9.13;4.20;;;435.50;1331.20;;;;;;4992437;28;20023;-70
2023/03/30 11:36:47;;;;;;;7.90;4.32;;;435.50;1331.20;;;;;;4986606;28;20054;-70
2023/03/30 11:39:15;;;;;;;9.35;3.85;;;435.60;1305.60;;;;;;4986568;28;20042;-70
2023/03/30 11:41:56;;;;;;;6.07;3.15;;;435.70;1356.80;;;;;;4986571;28;21046;-69
2023/03/30 11:44:22;;;;;;;11.82;3.92;;;435.70;1331.20;;;;;;4984258;28;20022;-72
2023/03/30 11:46:59;;;;;;;16.02;4.03;;;435.90;1356.80;;;;;;4987047;28;20121;-70
2023/03/30 11:49:38;;;;;;;9.38;3.92;;;436.10;1356.80;;;;;;4973402;28;20043;-71
2023/03/30 11:52:18;;;;;;;6.40;2.90;;;436.10;1356.80;;;;;;4983303;28;20085;-71
2023/03/30 11:54:59;;;;;;;8.77;3.70;;;436.10;1356.80;;;;;;4979009;28;20031;-75
2023/03/30 11:58:08;;;;;;;9.10;3.63;;;460.90;1356.80;;;;;;4982838;28;20043;-70
2023/03/30 12:00:52;;;;;;;7.40;3.08;;;461.20;1356.80;;;;;;4986870;28;20030;-71
2023/03/30 12:03:17;;;;;;;7.38;3.42;;;461.50;1356.80;;;;;;4984136;28;20035;-71
2023/03/30 12:05:55;;;;;;;12.27;3.80;;;461.60;1331.20;;;;;;4970478;28;20045;-72
2023/03/30 12:08:49;;;;;;;11.13;4.55;;;461.40;1356.80;;;;;;4982484;28;20038;-71
2023/03/30 12:11:37;;;;;;;6.38;3.30;;;461.50;1356.80;;;;;;4974450;28;20035;-72
2023/03/30 12:14:17;;;;;;;8.68;3.53;;;461.40;1331.20;;;;;;4897298;29;20144;-72
2023/03/30 12:16:48;;;;;;;7.70;3.25;;;461.50;1305.60;;;;;;4897710;29;20483;-71
2023/03/30 12:19:31;;;;;;;6.47;3.30;;;461.50;1305.60;;;;;;4897219;29;20135;-71
2023/03/30 12:22:10;;;;;;;12.80;3.78;;;461.60;1305.60;;;;;;4897064;29;20039;-71
2023/03/30 12:24:57;;;;;;;4.03;2.83;;;461.70;1305.60;;;;;;4897171;29;20123;-71
2023/03/30 12:27:26;;;;;;;11.40;2.63;;;486.50;1305.60;;;;;;4889583;29;20071;-71
2023/03/30 12:29:52;;;;;;;8.23;3.90;;;486.50;1305.60;;;;;;4897553;29;20472;-71
2023/03/30 12:32:25;;;;;;;9.30;3.10;;;486.60;1280.00;;;;;;4897105;29;20048;-71
2023/03/30 12:34:52;;;;;;;6.43;3.45;;;486.50;1280.00;;;;;;4896806;29;20025;-70
2023/03/30 12:37:36;;;;;;;6.72;3.17;;;486.70;1254.40;;;;;;4896938;29;20411;-72
2023/03/30 12:40:19;;;;;;;7.43;3.35;;;486.70;1228.80;;;;;;4894028;29;20088;-71